createdAt,value
2022-08-17T00:01:27.617Z,1007.76
2022-08-17T00:06:34.701Z,1007.75
2022-08-17T00:11:42.159Z,1007.76
2022-08-17T00:16:56.064Z,1007.79
2022-08-17T00:22:31.670Z,1007.79
2022-08-17T00:27:04.366Z,1007.80
2022-08-17T00:33:14.415Z,1007.85
2022-08-17T00:37:17.313Z,1007.94
2022-08-17T00:42:26.438Z,1008.05
2022-08-17T00:47:31.578Z,1008.01
2022-08-17T00:52:39.128Z,1008.02
2022-08-17T00:57:47.193Z,1008.06
2022-08-17T01:02:53.121Z,1008.03
2022-08-17T01:07:59.910Z,1008.02
2022-08-17T01:13:07.019Z,1008.08
2022-08-17T01:18:14.060Z,1008.12
2022-08-17T01:23:21.738Z,1008.20
2022-08-17T01:28:52.601Z,1008.17
2022-08-17T01:33:37.004Z,1008.14
2022-08-17T01:38:42.644Z,1008.15
2022-08-17T01:43:49.509Z,1008.21
2022-08-17T01:48:56.630Z,1008.25
2022-08-17T01:54:04.645Z,1008.32
2022-08-17T01:59:12.245Z,1008.34
2022-08-17T02:04:17.815Z,1008.31
2022-08-17T02:09:25.545Z,1008.25
2022-08-17T02:14:33.526Z,1008.25
2022-08-17T02:19:39.102Z,1008.27
2022-08-17T02:25:00.131Z,1008.24
2022-08-17T02:29:53.367Z,1008.24
2022-08-17T02:35:01.299Z,1008.22
2022-08-17T02:40:08.231Z,1008.24
2022-08-17T02:45:15.057Z,1008.24
2022-08-17T02:50:21.704Z,1008.25
2022-08-17T02:55:30.390Z,1008.24
2022-08-17T03:00:36.012Z,1008.26
2022-08-17T03:05:43.191Z,1008.21
2022-08-17T03:10:50.381Z,1008.22
2022-08-17T03:15:57.507Z,1008.24
2022-08-17T03:21:04.143Z,1008.28
2022-08-17T03:26:15.273Z,1008.28
2022-08-17T03:31:18.305Z,1008.23
2022-08-17T03:36:25.558Z,1008.21
2022-08-17T03:41:32.994Z,1008.18
2022-08-17T03:46:39.687Z,1008.17
2022-08-17T03:51:47.093Z,1008.18
2022-08-17T03:56:53.891Z,1008.16
2022-08-17T04:02:02.337Z,1008.20
2022-08-17T04:07:08.087Z,1008.25
2022-08-17T04:12:15.539Z,1008.23
2022-08-17T04:17:22.675Z,1008.20
2022-08-17T04:22:33.099Z,1008.20
2022-08-17T04:27:36.865Z,1008.15
2022-08-17T04:33:00.553Z,1008.17
2022-08-17T04:43:00.115Z,1008.17
2022-08-17T04:48:06.957Z,1008.38
2022-08-17T04:53:12.024Z,1008.39
2022-08-17T04:58:20.531Z,1008.50
2022-08-17T05:03:26.250Z,1008.62
2022-08-17T05:08:33.605Z,1008.74
2022-08-17T05:13:40.398Z,1008.73
2022-08-17T05:18:47.661Z,1008.83
2022-08-17T05:23:56.889Z,1008.89
2022-08-17T05:29:02.844Z,1009.03
2022-08-17T05:34:09.237Z,1009.12
2022-08-17T05:39:17.203Z,1009.18
2022-08-17T05:44:24.397Z,1009.21
2022-08-17T05:49:31.006Z,1009.22
2022-08-17T05:54:37.501Z,1009.29
2022-08-17T05:59:44.943Z,1009.25
2022-08-17T06:04:51.707Z,1009.22
2022-08-17T06:09:59.047Z,1009.27
2022-08-17T06:15:05.865Z,1009.36
2022-08-17T06:20:13.306Z,1009.54
2022-08-17T06:25:20.255Z,1009.56
2022-08-17T06:30:27.734Z,1009.69
2022-08-17T06:35:34.839Z,1009.79
2022-08-17T06:40:41.599Z,1009.86
2022-08-17T06:45:49.255Z,1010.02
2022-08-17T06:50:55.844Z,1010.00
2022-08-17T06:56:03.364Z,1009.85
2022-08-17T07:01:10.244Z,1009.94
2022-08-17T07:06:17.719Z,1009.99
2022-08-17T07:11:24.503Z,1010.11
2022-08-17T07:16:32.068Z,1010.03
2022-08-17T07:21:38.989Z,1010.10
2022-08-17T07:26:46.406Z,1010.19
2022-08-17T07:31:53.227Z,1010.25
2022-08-17T07:37:00.541Z,1010.18
2022-08-17T07:42:08.019Z,1010.23
2022-08-17T07:47:14.817Z,1010.25
2022-08-17T07:52:51.049Z,1010.32
2022-08-17T07:57:30.084Z,1010.41
2022-08-17T08:02:36.253Z,1010.40
2022-08-17T08:07:43.665Z,1010.50
2022-08-17T08:12:53.678Z,1010.50
2022-08-17T08:17:58.000Z,1010.47
2022-08-17T08:23:04.918Z,1010.54
2022-08-17T08:28:12.265Z,1010.59
2022-08-17T08:33:19.048Z,1010.66
2022-08-17T08:38:26.337Z,1010.65
2022-08-17T08:43:33.633Z,1010.67
2022-08-17T08:48:53.000Z,1010.61
2022-08-17T08:53:47.851Z,1010.60
2022-08-17T08:58:55.184Z,1010.62
2022-08-17T09:04:18.313Z,1010.63
2022-08-17T09:09:09.363Z,1010.58
2022-08-17T09:14:21.207Z,1010.63
2022-08-17T09:19:23.639Z,1010.54
2022-08-17T09:24:31.289Z,1010.49
2022-08-17T09:29:38.225Z,1010.45
2022-08-17T09:34:47.017Z,1010.42
2022-08-17T09:39:52.600Z,1010.49
2022-08-17T09:44:59.882Z,1010.46
2022-08-17T09:50:06.756Z,1010.44
2022-08-17T09:55:13.942Z,1010.46
2022-08-17T10:00:21.396Z,1010.40
2022-08-17T10:05:28.218Z,1010.33
2022-08-17T10:10:35.600Z,1010.31
2022-08-17T10:15:42.909Z,1010.37
2022-08-17T10:20:50.448Z,1010.39
2022-08-17T10:25:57.256Z,1010.34
2022-08-17T10:31:33.775Z,1010.33
2022-08-17T10:36:11.507Z,1010.38
2022-08-17T10:41:18.813Z,1010.42
2022-08-17T10:46:31.183Z,1010.41
2022-08-17T10:51:32.954Z,1010.37
2022-08-17T10:56:40.182Z,1010.52
2022-08-17T11:01:47.470Z,1010.47
2022-08-17T11:06:54.333Z,1010.51
2022-08-17T11:12:01.627Z,1010.44
2022-08-17T11:17:08.903Z,1010.42
2022-08-17T11:22:16.381Z,1010.33
2022-08-17T11:27:23.807Z,1010.27
2022-08-17T11:32:30.489Z,1010.19
2022-08-17T11:37:37.724Z,1010.04
2022-08-17T11:42:44.643Z,1009.97
2022-08-17T11:48:16.151Z,1009.96
2022-08-17T11:52:59.607Z,1009.92
2022-08-17T11:58:06.415Z,1009.90
2022-08-17T12:03:13.261Z,1009.88
2022-08-17T12:08:20.718Z,1009.88
2022-08-17T12:13:35.172Z,1009.91
2022-08-17T12:18:35.007Z,1010.15
2022-08-17T12:23:44.256Z,1010.23
2022-08-17T12:28:49.907Z,1010.09
2022-08-17T12:33:57.773Z,1009.95
2022-08-17T12:39:13.105Z,1009.84
2022-08-17T12:44:11.750Z,1009.81
2022-08-17T12:49:18.235Z,1009.84
2022-08-17T12:54:26.635Z,1009.73
2022-08-17T12:59:32.602Z,1009.63
2022-08-17T13:04:39.587Z,1009.41
2022-08-17T13:09:48.167Z,1009.43
2022-08-17T13:14:54.077Z,1009.43
2022-08-17T13:20:01.086Z,1009.39
2022-08-17T13:25:08.168Z,1009.31
2022-08-17T13:30:15.229Z,1009.23
2022-08-17T13:35:29.766Z,1009.32
2022-08-17T13:40:29.633Z,1009.21
2022-08-17T13:45:39.334Z,1009.19
2022-08-17T13:50:44.172Z,1009.19
2022-08-17T13:55:51.451Z,1009.13
2022-08-17T14:00:58.105Z,1009.04
2022-08-17T14:06:05.621Z,1009.03
2022-08-17T14:11:12.442Z,1009.00
2022-08-17T14:16:19.606Z,1008.96
2022-08-17T14:21:26.872Z,1008.88
2022-08-17T14:26:34.202Z,1008.91
2022-08-17T14:31:41.608Z,1009.00
2022-08-17T14:36:48.819Z,1008.99
2022-08-17T14:41:55.912Z,1008.92
2022-08-17T14:47:02.526Z,1008.86
2022-08-17T14:52:09.779Z,1008.84
2022-08-17T14:57:33.764Z,1008.74
2022-08-17T15:02:27.555Z,1008.75
2022-08-17T15:07:31.710Z,1008.71
2022-08-17T15:12:40.039Z,1008.71
2022-08-17T15:17:46.847Z,1008.72
2022-08-17T15:22:53.016Z,1008.70
2022-08-17T15:28:00.253Z,1008.65
2022-08-17T15:33:06.962Z,1008.64
2022-08-17T15:38:14.470Z,1008.66
2022-08-17T15:43:27.067Z,1008.65
2022-08-17T15:48:28.515Z,1008.66
2022-08-17T15:53:35.814Z,1008.63
2022-08-17T15:58:43.120Z,1008.60
2022-08-17T16:04:05.011Z,1008.64
2022-08-17T16:08:57.379Z,1008.69
2022-08-17T16:14:04.395Z,1008.69
2022-08-17T16:19:11.634Z,1008.50
2022-08-17T16:24:18.625Z,1008.40
2022-08-17T16:29:26.007Z,1008.45
2022-08-17T16:34:33.061Z,1008.42
2022-08-17T16:39:39.850Z,1008.30
2022-08-17T16:44:47.171Z,1008.29
2022-08-17T16:49:54.470Z,1008.39
2022-08-17T16:55:01.945Z,1008.39
2022-08-17T17:00:09.004Z,1008.36
2022-08-17T17:05:15.961Z,1008.28
2022-08-17T17:10:22.869Z,1008.13
2022-08-17T17:15:30.317Z,1008.12
2022-08-17T17:20:37.230Z,1008.07
2022-08-17T17:25:44.421Z,1008.08
2022-08-17T17:30:51.214Z,1008.18
2022-08-17T17:35:58.494Z,1008.15
2022-08-17T17:41:05.787Z,1008.06
2022-08-17T17:46:27.140Z,1008.03
2022-08-17T17:51:55.002Z,1007.95
2022-08-17T17:56:44.072Z,1007.90
2022-08-17T18:01:34.625Z,1007.94
2022-08-17T18:06:41.237Z,1007.92
2022-08-17T18:11:51.378Z,1008.07
2022-08-17T18:16:56.459Z,1008.08
2022-08-17T18:22:02.875Z,1008.04
2022-08-17T18:27:10.325Z,1008.13
2022-08-17T18:32:17.261Z,1008.22
2022-08-17T18:37:24.029Z,1008.26
2022-08-17T18:42:31.326Z,1008.32
2022-08-17T18:47:38.737Z,1008.27
2022-08-17T18:52:45.826Z,1008.24
2022-08-17T18:57:52.829Z,1008.25
2022-08-17T19:03:00.138Z,1008.24
2022-08-17T19:08:07.309Z,1008.28
2022-08-17T19:13:14.127Z,1008.30
2022-08-17T19:18:21.467Z,1008.33
2022-08-17T19:23:28.355Z,1008.33
2022-08-17T19:28:36.111Z,1008.24
2022-08-17T19:33:42.951Z,1008.16
2022-08-17T19:38:49.719Z,1008.17
2022-08-17T19:43:57.019Z,1008.16
2022-08-17T19:49:04.504Z,1008.27
2022-08-17T19:54:11.325Z,1008.27
2022-08-17T19:59:18.602Z,1008.20
2022-08-17T20:04:25.448Z,1008.14
2022-08-17T20:09:33.721Z,1008.11
2022-08-17T20:14:40.143Z,1008.08
2022-08-17T20:19:48.015Z,1008.05
2022-08-17T20:24:53.874Z,1007.99
2022-08-17T20:30:01.205Z,1007.95
2022-08-17T20:35:08.817Z,1007.90
2022-08-17T20:40:15.777Z,1007.87
2022-08-17T20:45:22.483Z,1007.93
2022-08-17T20:50:29.888Z,1007.97
2022-08-17T20:55:51.819Z,1008.02
2022-08-17T21:00:44.105Z,1008.06
2022-08-17T21:05:52.333Z,1008.04
2022-08-17T21:10:58.210Z,1008.02
2022-08-17T21:16:05.534Z,1007.98
2022-08-17T21:21:15.461Z,1007.98
2022-08-17T21:26:19.569Z,1007.99
2022-08-17T21:31:26.861Z,1008.01
2022-08-17T21:36:33.670Z,1008.02
2022-08-17T21:41:40.936Z,1008.02
2022-08-17T21:46:50.320Z,1008.03
2022-08-17T21:51:56.280Z,1008.04
2022-08-17T21:57:03.976Z,1008.04
2022-08-17T22:02:10.979Z,1008.13
2022-08-17T22:07:17.312Z,1008.17
2022-08-17T22:12:24.658Z,1008.18
2022-08-17T22:17:31.571Z,1008.17
2022-08-17T22:22:38.470Z,1008.24
2022-08-17T22:27:46.305Z,1008.22
2022-08-17T22:32:52.462Z,1008.24
2022-08-17T22:38:01.687Z,1008.26
2022-08-17T22:43:06.646Z,1008.24
2022-08-17T22:48:13.624Z,1008.27
2022-08-17T22:53:22.930Z,1008.37
2022-08-17T22:58:28.152Z,1008.42
2022-08-17T23:03:35.215Z,1008.47
2022-08-17T23:08:42.971Z,1008.46
2022-08-17T23:13:49.792Z,1008.43
2022-08-17T23:18:56.349Z,1008.39
2022-08-17T23:24:03.724Z,1008.33
2022-08-17T23:29:10.576Z,1008.31
2022-08-17T23:34:18.149Z,1008.26
2022-08-17T23:39:27.595Z,1008.23
2022-08-17T23:44:32.326Z,1008.18
2022-08-17T23:49:40.842Z,1008.15
2022-08-17T23:54:47.800Z,1008.10
2022-08-17T23:59:53.340Z,1008.06
